NCAR-RAP Real-Time Weather Data

Output produced by METARs form (17 October 2018  16:56 UTC)
found at http://weather.rap.ucar.edu/surface/
 
RJSS 171200Z 28003KT 9999 FEW040 SCT/// 11/10 Q1015
RJSS 171100Z 29003KT 9999 FEW040 12/10 Q1014
RJSS 171000Z 28004KT 9999 FEW020 12/10 Q1014
RJSS 170900Z 34003KT 9999 FEW020 13/10 Q1013
RJSS 170800Z VRB02KT 9999 FEW015 16/10 Q1013
RJSS 170700Z 04004KT 9999 FEW030 SCT100 16/10 Q1012
RJSS 170600Z 35004KT 290V040 9999 FEW020 SCT100 BKN140 16/11 Q1012
RJSS 170500Z 02004KT 350V060 9999 FEW015 SCT100 BKN120 16/11 Q1011
RJSS 170400Z 02004KT 350V060 9999 -SHRA FEW015 BKN100 BKN120 15/12 Q1012
RJSS 170300Z 36004KT 330V040 9999 -SHRA FEW006 SCT080 BKN100 14/12 Q1012
RJSS 170200Z 29004KT 9999 -SHRA FEW006 SCT060 BKN080 14/12 Q1012
RJSS 170100Z 34008KT 9999 -SHRA FEW020 BKN060 BKN080 13/12 Q1012
RJSS 170000Z 36007KT 9999 -RA FEW040 SCT060 BKN140 15/11 Q1012
RJSS 162300Z 34011G21KT 9999 FEW030 SCT060 BKN140 14/10 Q1011
RJSS 162200Z 34006KT 9999 FEW040 SCT070 BKN140 14/11 Q1011
RJSS 162100Z 34005KT 9999 FEW040 SCT100 BKN140 14/11 Q1011
RJSS 162030Z 36006KT CAVOK 14/11 Q1011 RMK A2985
RJSS 161200Z VRB02KT 9999 FEW050 BKN/// 14/13 Q1011
RJSS 161100Z 30002KT 9999 FEW050 BKN/// 15/13 Q1012
RJSS 161000Z 33003KT 310V010 9999 FEW050 BKN/// 15/13 Q1012
RJSS 160900Z 20003KT 180V240 9999 FEW050 BKN/// 17/14 Q1012
RJSS 160800Z 18003KT 9999 FEW050 BKN/// 17/13 Q1012
RJSS 160700Z 16006KT 9999 FEW030 BKN/// 18/13 Q1012
RJSS 160600Z 12005KT 9999 FEW030 BKN/// 19/13 Q1012
RJSS 160500Z 07005KT 9999 FEW030 BKN/// 19/13 Q1012
RJSS 160400Z 09004KT 050V120 9999 FEW020 BKN/// 19/14 Q1012
RJSS 160300Z VRB02KT 9999 FEW020 BKN/// 19/12 Q1013
RJSS 160200Z VRB02KT 9999 FEW020 BKN/// 17/12 Q1014
RJSS 160100Z 20003KT 130V250 9999 FEW040 BKN/// 16/13 Q1015
RJSS 160000Z 00000KT 9999 FEW040 BKN/// 15/12 Q1016
RJSS 152300Z 35004KT 9999 FEW050 BKN/// 13/11 Q1016
RJSS 152200Z 32004KT 9999 FEW060 BKN/// 11/10 Q1016
RJSS 152100Z 32003KT 9999 FEW002 BKN/// 09/08 Q1016
RJSS 152030Z 28003KT 250V310 9999 FEW006 SCT/// 09/08 Q1016 RMK 1ST006 A3001
RJSS 151200Z 27004KT 9999 FEW060 13/12 Q1017
RJSS 151100Z 30004KT 9999 FEW060 14/12 Q1017
RJSS 151000Z 28002KT 9999 FEW050 BKN/// 14/12 Q1017
RJSS 150900Z VRB01KT 9999 FEW050 BKN/// 16/12 Q1017
RJSS 150800Z 17004KT 9999 FEW050 SCT/// 17/11 Q1017
RJSS 150700Z 13004KT 9999 FEW050 SCT180 BKN/// 17/11 Q1017
RJSS 150600Z 12004KT 090V160 9999 FEW030 SCT180 BKN/// 18/12 Q1017
RJSS 150500Z 14005KT 9999 FEW030 BKN170 BKN/// 18/12 Q1017